Jepson Prairie Reserve, California Weather observations

Data are for 10 minute period ending at time listed.
 Day   Time   Solar   Ave.   Ave.  Ave.  Vector  Max.   Baro.   Total    
  of    of     Rad.   Air    Rel.  Wind   Wind   Wind  Press.  Precip.   
Year   Day            Temp.  Hum.  Speed  Dir.   Gust                    
2017   (PST)  Kw/m2    F      %     mph   deg.    mph    mb.     in.     
-------------------------------------------------------------------------
  56    5:10   0.00   42.7    94    4.4   242     5.7   1020.0    0.00 
  56    5:20   0.00   42.0    96    4.5   242     5.1   1020.0    0.00 
  56    5:30   0.00   42.1    97    5.7   247     6.8   1020.0    0.00 
  56    5:40   0.00   40.9    97    6.0   234     6.7   1020.3    0.00 
  56    5:50   0.00   40.7    98    6.2   226     6.9   1020.0    0.00 
  56    6:00   0.00   40.5    98    5.9   216     6.6   1020.0    0.00 
  56    6:10   0.00   39.8    99    6.2   204     7.2   1020.0    0.00 
  56    6:20   0.00   39.9    99    4.8   206     5.4   1020.0    0.00 
  56    6:30   0.00   39.9    99    4.3   202     4.6   1020.0    0.00 
  56    6:40   0.00   40.1    99    5.2   212     6.5   1020.0    0.00 
  56    6:50   0.00   40.7    99    6.8   213     7.3   1020.3    0.00 
  56    7:00   0.01   41.5    99    6.7   207     7.1   1020.0    0.00 
  56    7:10   0.02   41.5    99    7.0   210     7.2   1020.3    0.00 
  56    7:20   0.05   41.9    99    6.8   222     7.4   1020.3    0.00 
  56    7:30   0.07   42.7    99    7.1   220     8.5   1020.3    0.00 
  56    7:40   0.07   43.8    98    5.6   221     6.5   1020.3    0.00 
  56    7:50   0.07   44.3    96    4.5   216     5.5   1020.3    0.00 
  56    8:00   0.15   45.3    96    2.1   226     4.5   1020.3    0.00 
  56    8:10   0.21   47.0    92    1.7   263     2.6   1020.3    0.00 
  56    8:20   0.25   48.1    90    2.5   238     3.9   1020.3    0.00 
  56    8:30   0.24   48.9    90    3.7   228     5.7   1020.3    0.00 
  56    8:40   0.23   49.3    90    4.3   233     5.4   1020.3    0.00 
  56    8:50   0.28   49.7    89    4.6   241     5.7   1020.3    0.00 
  56    9:00   0.35   50.6    88    4.2   244     5.5   1020.0    0.00 
  56    9:10   0.38   51.3    85    2.6   256     4.3   1020.0    0.00 
  56    9:20   0.41   52.3    81    1.7   338     3.0   1020.0    0.00 
  56    9:30   0.44   52.9    79    2.1    35     3.4   1020.0    0.00 
  56    9:40   0.48   53.7    78    0.4    29     2.1   1019.6    0.00 
  56    9:50   0.51   54.0    78    1.2     2     2.4   1019.6    0.00 
  56   10:00   0.52   52.8    81    2.7     4     3.9   1019.6    0.00 
  56   10:10   0.54   52.4    80    1.2   355     2.9   1019.3    0.00 
  56   10:20   0.57   54.1    74    0.3   337     2.2   1019.3    0.00 
  56   10:30   0.64   55.3    73    0.4   320     1.6   1019.3    0.00 
  56   10:40   0.72   54.8    72    3.5   349     5.8   1019.3    0.00 
  56   10:50   0.47   53.3    72    4.4   353     5.8   1019.3    0.00 
  56   11:00   0.50   53.6    70    2.2   341     4.9   1019.0    0.00 
  56   11:10   0.74   54.2    69    5.6   351     7.9   1019.3    0.00 
  56   11:20   0.74   54.1    67    2.5   348     6.7   1019.3    0.00 
  56   11:30   0.73   55.6    64    2.4     4     7.3   1019.0    0.00 
  56   11:40   0.78   56.6    64    3.7    12     9.0   1019.0    0.00 
  56   11:50   0.67   54.6    66    5.1   356     7.7   1019.0    0.00 
  56   12:00   0.76   55.2    65    4.1   352     7.7   1018.6    0.00 
  56   12:10   0.78   56.9    64    3.4    44     6.0   1018.3    0.00 
  56   12:20   0.71   57.0    63    4.4    20     7.4   1018.3    0.00 
  56   12:30   0.70   55.9    62    4.5    21     8.0   1018.3    0.00 
  56   12:40   0.58   56.1    62    4.2    37     7.4   1018.0    0.00 
  56   12:50   0.69   56.8    60    2.5    58     4.3   1018.0    0.00 
  56   13:00   0.69   57.4    59    3.4    20     8.6   1017.6    0.00 
  56   13:10   0.63   56.8    59    3.3   336     7.4   1017.6    0.00 
  56   13:20   0.64   56.4    60    4.5   299     9.0   1017.3    0.00 
  56   13:30   0.72   57.5    58    3.1   311     7.3   1016.9    0.00 
  56   13:40   0.63   56.9    59    4.7   359     7.4   1016.9    0.00 
  56   13:50   0.62   57.1    58    3.9   344     8.8   1016.6    0.00 
  56   14:00   0.61   56.8    60    7.2     3    13.1   1016.3    0.00 
  56   14:10   0.59   56.7    60    7.2    15    10.9   1015.9    0.00 
  56   14:20   0.57   56.7    60    7.2   353    10.7   1015.6    0.00 
  56   14:30   0.53   56.9    60    7.9    12    13.7   1015.6    0.00 
  56   14:40   0.50   56.9    59    8.7   353    12.1   1015.2    0.00 
  56   14:50   0.40   56.9    58    9.3   346    15.9   1014.9    0.00 
  56   15:00   0.41   57.2    57    8.1     2    13.3   1014.9    0.00 
  56   15:10   0.37   57.2    55    7.8     3    12.5   1015.2    0.00 
  56   15:20   0.28   57.1    58    7.4     1    10.4   1015.6    0.00 
  56   15:30   0.27   57.2    59    7.8     4    10.6   1015.2    0.00 
  56   15:40   0.19   57.4    58    5.8   359     8.3   1015.6    0.00 
  56   15:50   0.16   57.1    56    3.6     6     5.8   1015.6    0.00 
  56   16:00   0.19   57.2    58    6.3   355    10.1   1015.2    0.00 
  56   16:10   0.15   57.5    59    5.9   315     7.6   1015.2    0.00 
  56   16:20   0.12   57.3    58    5.9   319     8.3   1015.6    0.00 
  56   16:30   0.11   57.0    59    6.5   320     8.7   1015.2    0.00 
  56   16:40   0.09   57.1    61    5.9   319     8.6   1015.2    0.00 
  56   16:50   0.07   57.0    62    8.4   330    10.2   1015.2    0.00 
  56   17:00   0.07   56.6    63    8.8   330    12.0   1015.2    0.00 
  56   17:10   0.06   56.4    66    9.0   335    11.8   1014.9    0.00 
  56   17:20   0.04   56.2    65    8.9   345    11.3   1014.9    0.00 
  56   17:30   0.03   55.9    66    8.8   346    11.5   1014.9    0.00 
  56   17:40   0.02   55.3    67    9.3   350    12.1   1014.6    0.00 
  56   17:50   0.01   54.6    71    8.9   353    11.0   1014.6    0.00 
  56   18:00   0.00   54.2    71    9.0   351    11.5   1014.6    0.00 
  56   18:10   0.00   54.0    69    9.0   350    11.8   1014.9    0.00 
  56   18:20   0.00   53.3    69    8.1   348    10.7   1014.9    0.00 
  56   18:30   0.00   53.4    67    8.4   353    11.0   1014.9    0.00 
  56   18:40   0.00   52.2    72    7.8   353     9.1   1014.9    0.00 
  56   18:50   0.00   51.9    72    7.4   356     9.0   1014.6    0.00 
  56   19:00   0.00   51.3    74    6.1   356     7.7   1014.9    0.00 
  56   19:10   0.00   51.1    74    4.8   353     6.5   1014.9    0.00 
  56   19:20   0.00   51.1    73    4.5   350     6.4   1014.9    0.00 
  56   19:30   0.00   51.3    71    6.0   353     7.0   1014.9    0.00 
  56   19:40   0.00   50.9    73    5.1   354     6.9   1014.6    0.00 
  56   19:50   0.00   50.2    75    4.3   335     5.8   1014.9    0.00 
  56   20:00   0.00   49.3    78    5.5   319     6.9   1014.9    0.00 
  56   20:10   0.00   48.9    79    5.9   305     7.2   1014.9    0.00 
  56   20:20   0.00   48.6    80    5.9   308     6.9   1014.9    0.00 
  56   20:30   0.00   47.5    82    6.3   310     7.1   1015.2    0.00 
  56   20:40   0.00   47.0    83    5.0   319     6.3   1015.2    0.00 
  56   20:50   0.00   46.7    85    4.2   320     5.1   1015.2    0.00 
  56   21:00   0.00   47.2    84    4.1   310     4.9   1015.6    0.00 
  56   21:10   0.00   48.1    82    4.6   310     5.3   1015.6    0.00 
  56   21:20   0.00   48.3    81    4.6   302     5.7   1015.6    0.00 
  56   21:30   0.00   48.4    79    4.2   305     5.5   1015.6    0.00 
  56   21:40   0.00   48.6    76    4.4   306     5.0   1015.6    0.00 
  56   21:50   0.00   48.7    75    3.2   305     4.7   1015.6    0.00 
  56   22:00   0.00   48.0    77    1.8   303     2.6   1015.6    0.00 
  56   22:10   0.00   46.1    79    1.0   290     1.9   1015.2    0.00 
  56   22:20   0.00   44.4    86    2.0   234     3.1   1015.2    0.00 
  56   22:30   0.00   44.3    88    2.6   240     3.0   1015.2    0.00 
  56   22:40   0.00   43.4    90    2.7   252     3.4   1015.2    0.00 
  56   22:50   0.00   42.7    92    3.5   249     4.3   1014.9    0.00 
  56   23:00   0.00   42.0    94    3.8   243     4.5   1014.9    0.00 
  56   23:10   0.00   41.7    96    3.7   254     4.3   1014.9    0.00 
  56   23:20   0.00   41.6    96    4.3   261     5.2   1015.2    0.00 
  56   23:30   0.00   41.9    96    5.3   263     6.4   1015.2    0.00 
  56   23:40   0.00   41.8    96    5.4   253     6.1   1014.9    0.00 
  56   23:50   0.00   41.7    94    5.8   252     6.9   1014.9    0.00 
  57    0:00   0.00   41.3    92    5.4   262     6.4   1014.9    0.00 
  57    0:10   0.00   41.0    90    5.4   262     6.1   1014.9    0.00 
  57    0:20   0.00   41.3    88    4.9   262     6.3   1014.6    0.00 
  57    0:30   0.00   41.0    90    5.0   252     5.6   1014.6    0.00 
  57    0:40   0.00   40.8    91    5.2   241     5.8   1014.6    0.00 
  57    0:50   0.00   40.1    92    6.8   230     8.0   1014.6    0.00 
  57    1:00   0.00   39.5    93    7.4   221     8.1   1014.6    0.00 
  57    1:10   0.00   38.9    93    6.6   214     7.5   1014.6    0.00 
  57    1:20   0.00   38.9    92    6.4   206     8.2   1014.2    0.00 
  57    1:30   0.00   40.2    92    5.8   200     7.5   1014.2    0.00 
  57    1:40   0.00   39.7    92    7.1   196     8.7   1014.2    0.00 
  57    1:50   0.00   39.2    93    5.9   204     7.6   1014.2    0.00 
  57    2:00   0.00   42.0    95    6.2   210     8.7   1014.2    0.00 
  57    2:10   0.00   44.0    95    5.8   215     8.0   1013.9    0.00 
  57    2:20   0.00   41.6    94    5.5   206     7.1   1013.9    0.00 
  57    2:30   0.00   40.2    93    5.9   204     6.5   1013.5    0.00 
  57    2:40   0.00   39.4    93    6.1   210     6.9   1013.5    0.00 
  57    2:50   0.00   39.0    93    7.3   216     8.3   1013.2    0.00 
  57    3:00   0.00   38.9    95    8.7   221     9.6   1013.2    0.00 
  57    3:10   0.00   40.8    96    6.1   229     8.2   1013.2    0.00 
  57    3:20   0.00   40.9    94    6.8   223     8.3   1013.2    0.00 
  57    3:30   0.00   39.8    93    7.3   215     8.1   1013.2    0.00 
  57    3:40   0.00   39.5    94    6.1   217     7.6   1013.2    0.00 
  57    3:50   0.00   39.5    95    8.0   214     9.9   1013.2    0.00 
  57    4:00   0.00   40.8    96    8.6   211    11.2   1013.2    0.00 
  57    4:10   0.00   41.0    96    8.0   210     9.4   1013.2    0.00 
  57    4:20   0.00   40.9    96    7.8   212     8.8   1013.2    0.00 
  57    4:30   0.00   41.1    96    6.4   207     8.2   1013.2    0.00 
  57    4:40   0.00   40.5    96    8.0   210     9.0   1013.2    0.00 
  57    4:50   0.00   39.5    96    7.6   210     8.6   1013.2    0.00 
  57    5:00   0.00   39.5    97    7.8   202     8.4   1012.9    0.00 

Return to Jepson Prairie Reserve graphs page.


Western Regional Climate Center,wrcc@dri.edu